Time;durP1;ratioP1;P1;durP2;ratioP2;P2;SDS_P1;SDS_P2;PMS_P1;PMS_P2;Temp;Humidity;BMP_temperature;BMP_pressure;BME280_temperature;BME280_humidity;BME280_pressure;Samples;Min_cycle;Max_cycle;Signal;HPM_P1;HPM_P2
2021/07/05 00:04:03;;;;;;;3.30;1.25;;;19.60;87.90;;;;;;10176908;28;20131;-58
2021/07/05 00:08:53;;;;;;;1.13;0.80;;;19.50;88.00;;;;;;10159314;28;20093;-56
2021/07/05 00:13:44;;;;;;;4.05;0.95;;;19.60;87.80;;;;;;10177149;28;20036;-57
2021/07/05 00:18:35;;;;;;;1.15;0.80;;;19.60;87.60;;;;;;10176969;28;20024;-55
2021/07/05 00:23:25;;;;;;;2.30;0.75;;;19.60;87.50;;;;;;10176279;28;20051;-59
2021/07/05 00:28:16;;;;;;;1.63;1.40;;;19.60;87.50;;;;;;10176620;28;20447;-58
2021/07/05 00:33:07;;;;;;;1.23;1.13;;;19.60;87.50;;;;;;10163823;28;20037;-56
2021/07/05 00:37:59;;;;;;;0.93;0.73;;;19.60;87.30;;;;;;10143773;28;20036;-55
2021/07/05 00:42:50;;;;;;;2.35;1.23;;;19.60;87.20;;;;;;10167826;28;20127;-55
2021/07/05 00:47:41;;;;;;;0.95;0.90;;;19.60;87.20;;;;;;10175478;28;20340;-55
2021/07/05 00:52:37;;;;;;;2.40;0.77;;;19.50;87.10;;;;;;10175283;28;20126;-56
2021/07/05 00:57:28;;;;;;;0.80;0.60;;;19.50;87.20;;;;;;10175295;28;20060;-57
2021/07/05 01:02:20;;;;;;;1.30;0.80;;;19.40;87.10;;;;;;10156758;28;20510;-55
2021/07/05 01:07:13;;;;;;;1.30;0.95;;;19.30;87.10;;;;;;10157231;28;20016;-58
2021/07/05 01:12:04;;;;;;;2.13;1.17;;;19.30;87.10;;;;;;10174671;28;20040;-56
2021/07/05 01:16:55;;;;;;;1.50;0.95;;;19.20;87.20;;;;;;10175063;28;20035;-58
2021/07/05 01:21:46;;;;;;;1.25;0.98;;;19.20;87.30;;;;;;10174490;28;20695;-57
2021/07/05 01:26:36;;;;;;;1.73;1.08;;;19.20;87.20;;;;;;10171987;28;20028;-55
2021/07/05 01:31:27;;;;;;;1.25;0.93;;;19.10;87.10;;;;;;10156149;28;20558;-58
2021/07/05 01:36:18;;;;;;;2.38;0.88;;;19.00;87.20;;;;;;10174274;28;20031;-55
2021/07/05 01:41:10;;;;;;;1.90;1.17;;;19.00;87.30;;;;;;10174117;28;20040;-56
2021/07/05 01:46:01;;;;;;;2.15;1.52;;;19.00;87.30;;;;;;10174200;28;20024;-58
2021/07/05 01:50:53;;;;;;;1.80;0.95;;;19.00;87.70;;;;;;10173460;28;20036;-59
2021/07/05 01:55:45;;;;;;;1.88;1.25;;;19.00;87.70;;;;;;10173969;28;20074;-58
2021/07/05 02:00:37;;;;;;;1.67;1.05;;;18.90;87.70;;;;;;10155279;28;20328;-54
2021/07/05 02:05:28;;;;;;;2.28;1.10;;;18.90;87.90;;;;;;10173263;28;20039;-56
2021/07/05 02:10:23;;;;;;;1.88;1.10;;;19.00;87.80;;;;;;10173512;28;20025;-57
2021/07/05 02:15:14;;;;;;;1.73;1.00;;;18.90;87.80;;;;;;10173520;28;20127;-61
2021/07/05 02:20:08;;;;;;;1.10;0.90;;;19.00;87.80;;;;;;10176197;28;20054;-59
2021/07/05 02:25:00;;;;;;;1.00;0.80;;;18.90;87.80;;;;;;10181506;28;20547;-59
2021/07/05 02:29:51;;;;;;;1.55;0.90;;;18.90;87.90;;;;;;10180083;28;20028;-58
2021/07/05 02:34:41;;;;;;;1.25;1.15;;;18.90;88.10;;;;;;10181613;28;20491;-58
2021/07/05 02:39:32;;;;;;;3.50;1.23;;;18.80;88.00;;;;;;10162887;28;20085;-55
2021/07/05 02:44:23;;;;;;;2.35;1.15;;;18.80;88.00;;;;;;10180929;28;20044;-58
2021/07/05 02:49:13;;;;;;;1.77;0.77;;;18.80;88.10;;;;;;10180072;28;20020;-56
2021/07/05 02:54:06;;;;;;;2.22;1.33;;;18.70;88.10;;;;;;10180495;28;20036;-57
2021/07/05 02:58:56;;;;;;;1.27;1.00;;;18.70;88.20;;;;;;10180143;28;20358;-57
2021/07/05 03:03:47;;;;;;;3.72;1.17;;;18.60;88.50;;;;;;10179034;28;20104;-56
2021/07/05 03:08:38;;;;;;;2.13;1.10;;;18.70;88.40;;;;;;10177708;28;20032;-58
2021/07/05 03:13:28;;;;;;;2.95;1.00;;;18.70;88.30;;;;;;10179580;28;20036;-56
2021/07/05 03:18:19;;;;;;;1.90;1.08;;;18.60;88.40;;;;;;10179630;28;20044;-58
2021/07/05 03:23:14;;;;;;;2.30;1.33;;;18.60;88.50;;;;;;10161324;28;20184;-55
2021/07/05 03:28:07;;;;;;;2.17;1.50;;;18.60;88.50;;;;;;10179358;28;20027;-58
2021/07/05 03:32:57;;;;;;;2.15;1.30;;;18.50;88.60;;;;;;10178268;28;20420;-59
2021/07/05 03:37:48;;;;;;;3.05;0.95;;;18.60;88.80;;;;;;10178246;28;20044;-59
2021/07/05 03:42:39;;;;;;;1.27;0.90;;;18.60;88.80;;;;;;10178329;28;20062;-60
2021/07/05 03:47:30;;;;;;;1.30;1.00;;;18.60;88.80;;;;;;10177996;28;20135;-55
2021/07/05 03:52:21;;;;;;;3.25;1.10;;;18.60;88.90;;;;;;10177541;28;20024;-58
2021/07/05 03:57:21;;;;;;;2.40;1.42;;;18.50;88.90;;;;;;10177531;28;20024;-59
2021/07/05 04:02:12;;;;;;;1.00;0.88;;;18.60;88.80;;;;;;10183602;28;20071;-58
2021/07/05 04:07:03;;;;;;;2.05;1.13;;;18.60;88.90;;;;;;10177288;28;20028;-59
2021/07/05 04:11:53;;;;;;;1.30;1.15;;;18.50;88.80;;;;;;10177022;28;20040;-57
2021/07/05 04:16:44;;;;;;;1.42;1.27;;;18.60;89.20;;;;;;10177697;28;20022;-58
2021/07/05 04:21:34;;;;;;;1.80;1.30;;;18.60;89.20;;;;;;10177020;28;20135;-58
2021/07/05 04:26:25;;;;;;;3.08;1.50;;;18.60;89.20;;;;;;10158369;28;20127;-56
2021/07/05 04:31:16;;;;;;;2.25;1.63;;;18.60;89.20;;;;;;10176805;28;20044;-58
2021/07/05 04:36:06;;;;;;;2.13;1.20;;;18.70;89.10;;;;;;10177029;28;20093;-58
2021/07/05 04:41:02;;;;;;;2.47;1.30;;;18.60;89.20;;;;;;10157433;28;20510;-58
2021/07/05 04:45:54;;;;;;;2.30;0.98;;;18.50;89.40;;;;;;10156601;28;20126;-59
2021/07/05 04:50:45;;;;;;;1.63;1.50;;;18.40;89.70;;;;;;10175476;28;20272;-58
2021/07/05 04:55:36;;;;;;;2.80;1.35;;;18.50;89.70;;;;;;10175546;28;20028;-57
2021/07/05 05:00:31;;;;;;;5.05;1.30;;;18.50;89.90;;;;;;10175660;28;20043;-58
2021/07/05 05:05:22;;;;;;;3.05;1.20;;;18.50;89.80;;;;;;10155740;28;20078;-58
2021/07/05 05:10:16;;;;;;;3.25;1.20;;;18.60;89.60;;;;;;10173704;28;20561;-58
2021/07/05 05:15:08;;;;;;;3.33;1.08;;;18.60;89.80;;;;;;10157413;28;20036;-59
2021/07/05 05:19:59;;;;;;;3.38;1.13;;;18.60;90.00;;;;;;10174414;28;20038;-57
2021/07/05 05:24:50;;;;;;;1.35;1.02;;;18.70;89.90;;;;;;10174527;28;20093;-59
2021/07/05 05:29:41;;;;;;;1.80;0.90;;;18.70;89.90;;;;;;10174334;28;20398;-57
2021/07/05 05:34:32;;;;;;;2.00;1.13;;;18.60;90.00;;;;;;10174452;28;20066;-57
2021/07/05 05:39:23;;;;;;;2.35;1.10;;;18.60;90.20;;;;;;10174345;28;20032;-55
2021/07/05 05:44:14;;;;;;;2.03;1.38;;;18.60;90.20;;;;;;10174647;28;20040;-62
2021/07/05 05:49:05;;;;;;;3.53;1.00;;;18.70;90.20;;;;;;10174129;28;20089;-57
2021/07/05 05:53:56;;;;;;;1.85;1.13;;;18.70;90.20;;;;;;10173551;28;20114;-58
2021/07/05 05:58:46;;;;;;;3.25;1.65;;;18.70;90.20;;;;;;10173356;28;20127;-57
2021/07/05 06:03:37;;;;;;;4.00;1.10;;;18.70;90.20;;;;;;10172966;28;20154;-57
2021/07/05 06:08:28;;;;;;;2.08;1.88;;;18.80;90.10;;;;;;10173636;28;20028;-59
2021/07/05 06:13:18;;;;;;;3.30;1.33;;;18.80;90.20;;;;;;10169812;28;20055;-56
2021/07/05 06:18:09;;;;;;;2.95;1.58;;;18.80;90.10;;;;;;10172747;28;20036;-55
2021/07/05 06:23:00;;;;;;;2.28;1.20;;;18.90;90.10;;;;;;10173286;28;20051;-57
2021/07/05 06:27:51;;;;;;;3.63;1.48;;;19.00;90.00;;;;;;10173002;28;20061;-58
2021/07/05 06:32:42;;;;;;;1.50;1.33;;;19.10;90.10;;;;;;10172339;28;20115;-57
2021/07/05 06:37:33;;;;;;;2.63;1.52;;;19.20;90.10;;;;;;10166540;28;20097;-59
2021/07/05 06:42:24;;;;;;;4.28;1.65;;;19.20;90.10;;;;;;10168310;28;20036;-57
2021/07/05 06:47:15;;;;;;;2.72;1.20;;;19.20;90.10;;;;;;10158840;28;20434;-58
2021/07/05 06:52:06;;;;;;;2.63;1.48;;;19.20;90.20;;;;;;10162213;28;20055;-58
2021/07/05 06:56:56;;;;;;;2.22;1.25;;;19.20;90.20;;;;;;10167204;28;20036;-58
2021/07/05 07:01:47;;;;;;;2.58;0.98;;;19.20;90.20;;;;;;10159951;28;20051;-58
2021/07/05 07:06:38;;;;;;;3.17;1.35;;;19.20;90.40;;;;;;10159451;28;20046;-58
2021/07/05 07:11:29;;;;;;;2.28;1.25;;;19.30;90.10;;;;;;10172530;28;20298;-57
2021/07/05 07:16:21;;;;;;;2.55;1.10;;;19.40;90.10;;;;;;10170458;28;20024;-58
2021/07/05 07:21:12;;;;;;;3.33;1.50;;;19.40;90.00;;;;;;10179029;28;20071;-59
2021/07/05 07:26:03;;;;;;;1.85;0.85;;;19.50;90.00;;;;;;10178788;28;20040;-58
2021/07/05 07:30:54;;;;;;;2.30;1.15;;;19.50;89.60;;;;;;10160298;28;20047;-59
2021/07/05 07:35:46;;;;;;;2.67;1.00;;;19.40;89.70;;;;;;10173457;28;20419;-59
2021/07/05 07:40:39;;;;;;;3.25;1.52;;;19.50;90.20;;;;;;10178116;28;20096;-60
2021/07/05 07:45:30;;;;;;;3.03;1.83;;;19.60;89.40;;;;;;10171227;28;20408;-59
2021/07/05 07:50:21;;;;;;;2.38;1.77;;;19.50;89.10;;;;;;10177524;28;20032;-60
2021/07/05 07:55:14;;;;;;;6.75;3.80;;;19.50;89.00;;;;;;10151081;28;20513;-58
2021/07/05 08:00:11;;;;;;;2.55;1.65;;;19.70;88.60;;;;;;10173212;28;20041;-58
2021/07/05 08:05:02;;;;;;;1.98;1.50;;;20.00;87.90;;;;;;10174811;28;20052;-58
2021/07/05 08:09:54;;;;;;;1.58;1.00;;;20.00;87.20;;;;;;10192367;28;20058;-59
2021/07/05 08:14:45;;;;;;;4.60;1.20;;;20.10;87.20;;;;;;10176795;28;20044;-59
2021/07/05 08:19:36;;;;;;;2.97;0.88;;;20.10;87.00;;;;;;10172921;28;20029;-59
2021/07/05 08:24:26;;;;;;;1.20;0.90;;;19.90;87.30;;;;;;10176119;28;20036;-58
2021/07/05 08:29:17;;;;;;;2.78;1.08;;;19.80;87.40;;;;;;10176757;28;20044;-58
2021/07/05 08:34:08;;;;;;;1.42;0.70;;;19.70;87.50;;;;;;10173091;28;20028;-59
2021/07/05 08:38:59;;;;;;;1.55;0.98;;;19.90;87.00;;;;;;10175652;28;20044;-59
2021/07/05 08:43:50;;;;;;;1.63;0.98;;;20.00;86.50;;;;;;10171174;28;21358;-58
2021/07/05 08:48:43;;;;;;;1.17;1.02;;;20.30;86.30;;;;;;10173992;28;20196;-59
2021/07/05 08:53:34;;;;;;;1.92;1.20;;;20.30;86.10;;;;;;10175306;28;20062;-59
2021/07/05 08:58:25;;;;;;;3.17;1.05;;;20.40;86.00;;;;;;10175334;28;20453;-58
2021/07/05 09:03:28;;;;;;;1.88;1.35;;;20.40;86.00;;;;;;10174245;28;20044;-59
2021/07/05 09:08:19;;;;;;;1.75;1.30;;;20.50;85.70;;;;;;10175075;28;20042;-58
2021/07/05 09:13:20;;;;;;;3.30;1.20;;;20.60;85.10;;;;;;10174827;28;20575;-60
2021/07/05 09:18:28;;;;;;;1.33;1.00;;;20.60;85.20;;;;;;10164103;28;20052;-60
2021/07/05 09:23:20;;;;;;;1.80;1.02;;;20.60;85.10;;;;;;10174232;28;20122;-58
2021/07/05 09:28:10;;;;;;;2.05;1.17;;;20.50;85.20;;;;;;10173888;28;20406;-58
2021/07/05 09:33:18;;;;;;;1.73;1.10;;;20.40;85.20;;;;;;10173905;28;20043;-58
2021/07/05 09:38:09;;;;;;;4.20;2.25;;;20.50;84.90;;;;;;10174257;28;20036;-60
2021/07/05 09:43:00;;;;;;;2.13;1.45;;;20.60;84.70;;;;;;10173331;28;20111;-58
2021/07/05 09:48:29;;;;;;;5.07;1.67;;;20.90;84.20;;;;;;10173573;28;20058;-58
2021/07/05 09:53:40;;;;;;;4.30;2.30;;;21.70;82.20;;;;;;10016459;28;20176;-59
2021/07/05 09:58:31;;;;;;;2.17;1.15;;;22.10;82.30;;;;;;10129300;28;20425;-60
2021/07/05 10:03:36;;;;;;;2.15;0.95;;;22.00;82.60;;;;;;10164584;28;20051;-59
2021/07/05 10:08:30;;;;;;;2.38;1.10;;;21.50;82.70;;;;;;10168532;28;20075;-59
2021/07/05 10:13:21;;;;;;;14.43;8.85;;;21.20;83.50;;;;;;10170263;28;20245;-57
2021/07/05 10:18:12;;;;;;;4.18;1.85;;;21.20;83.10;;;;;;10161233;28;20190;-58
2021/07/05 10:23:09;;;;;;;1.35;1.02;;;21.30;82.40;;;;;;10172482;28;20047;-57
2021/07/05 10:28:00;;;;;;;2.95;1.42;;;21.50;82.00;;;;;;10137980;28;20039;-58
2021/07/05 10:32:52;;;;;;;1.63;1.17;;;22.00;80.90;;;;;;10172569;28;20055;-57
2021/07/05 10:38:00;;;;;;;1.20;0.93;;;22.40;79.90;;;;;;10171762;28;20043;-58
2021/07/05 10:42:55;;;;;;;3.67;1.05;;;22.50;79.50;;;;;;10174822;28;20043;-60
2021/07/05 10:47:53;;;;;;;2.17;1.05;;;22.30;79.60;;;;;;10180015;28;20024;-58
2021/07/05 10:52:50;;;;;;;2.65;0.88;;;22.00;80.00;;;;;;10179889;28;20031;-58
2021/07/05 10:57:41;;;;;;;2.88;1.45;;;21.90;79.90;;;;;;10179900;28;20032;-57
2021/07/05 11:02:36;;;;;;;2.17;1.42;;;22.60;78.60;;;;;;10172075;28;20044;-57
2021/07/05 11:07:47;;;;;;;2.65;0.88;;;23.10;77.70;;;;;;10162794;28;20490;-58
2021/07/05 11:12:38;;;;;;;1.00;0.80;;;23.50;76.60;;;;;;10153797;28;20024;-59
2021/07/05 11:17:36;;;;;;;1.08;0.98;;;23.70;76.50;;;;;;10176753;28;20414;-58
2021/07/05 11:22:38;;;;;;;2.50;0.75;;;23.10;76.80;;;;;;10177029;28;20044;-59
2021/07/05 11:27:31;;;;;;;3.95;0.98;;;22.80;77.30;;;;;;10168171;28;20055;-58
2021/07/05 11:32:41;;;;;;;1.38;0.95;;;22.70;77.20;;;;;;10178687;28;20161;-58
2021/07/05 11:37:32;;;;;;;2.03;0.80;;;22.50;77.30;;;;;;10166996;28;20637;-59
2021/07/05 11:42:32;;;;;;;1.70;0.70;;;22.80;76.90;;;;;;10177948;28;20452;-58
2021/07/05 11:47:52;;;;;;;0.90;0.70;;;22.70;76.90;;;;;;10176700;28;20073;-58
2021/07/05 11:52:53;;;;;;;1.13;0.77;;;22.70;77.40;;;;;;10160137;28;20084;-59
2021/07/05 11:57:50;;;;;;;1.63;0.90;;;23.00;77.10;;;;;;10178579;28;20520;-58
2021/07/05 12:02:40;;;;;;;3.88;1.30;;;23.40;76.70;;;;;;10176923;28;20506;-60
2021/07/05 12:07:31;;;;;;;0.77;0.70;;;23.50;76.70;;;;;;10172312;28;20039;-59
2021/07/05 12:12:23;;;;;;;1.02;0.90;;;24.00;75.80;;;;;;10149787;28;20046;-57
2021/07/05 12:17:15;;;;;;;0.77;0.75;;;24.50;75.20;;;;;;10157597;28;20036;-59
2021/07/05 12:22:09;;;;;;;0.90;0.70;;;25.10;74.30;;;;;;10176331;28;20044;-59
2021/07/05 12:27:11;;;;;;;0.50;0.40;;;25.70;73.40;;;;;;10175078;28;20032;-60
2021/07/05 12:32:17;;;;;;;0.80;0.50;;;26.20;70.80;;;;;;10176561;28;20044;-58
2021/07/05 12:37:17;;;;;;;10.73;7.95;;;25.60;70.10;;;;;;10159317;28;20028;-60
2021/07/05 12:42:31;;;;;;;1.38;1.00;;;24.70;70.90;;;;;;10169734;28;20047;-59
2021/07/05 12:47:23;;;;;;;0.63;0.50;;;24.10;70.10;;;;;;10163446;28;20498;-58
2021/07/05 12:52:14;;;;;;;3.95;1.80;;;23.90;70.20;;;;;;10175009;28;20085;-59
2021/07/05 12:57:18;;;;;;;1.92;1.00;;;23.70;70.20;;;;;;10169899;28;20081;-58
2021/07/05 13:02:28;;;;;;;3.20;0.97;;;23.50;70.60;;;;;;10143452;28;20050;-60
2021/07/05 13:07:21;;;;;;;1.73;1.08;;;23.50;71.10;;;;;;10173745;28;20035;-58
2021/07/05 13:12:15;;;;;;;2.33;1.10;;;23.50;71.20;;;;;;10174604;28;20446;-59
2021/07/05 13:17:17;;;;;;;1.97;1.30;;;23.90;70.50;;;;;;10133517;28;20218;-60
2021/07/05 13:22:24;;;;;;;1.20;0.70;;;23.80;70.80;;;;;;10174178;28;20036;-59
2021/07/05 13:27:29;;;;;;;0.98;0.65;;;23.70;70.70;;;;;;10173740;28;20036;-58
2021/07/05 13:32:23;;;;;;;2.15;0.90;;;23.80;70.10;;;;;;10146465;28;20080;-58
2021/07/05 13:37:22;;;;;;;1.13;0.63;;;23.90;70.20;;;;;;10159184;28;20039;-58
2021/07/05 13:42:16;;;;;;;1.50;0.85;;;24.20;69.40;;;;;;10173362;28;20051;-59
2021/07/05 13:47:23;;;;;;;2.17;0.95;;;27.30;65.30;;;;;;10173313;28;20036;-58
2021/07/05 13:52:34;;;;;;;1.60;0.82;;;28.90;62.10;;;;;;10173525;28;20040;-59
2021/07/05 13:57:24;;;;;;;1.00;0.65;;;32.20;55.90;;;;;;10173395;28;20337;-59
2021/07/05 14:02:18;;;;;;;0.98;0.82;;;32.90;54.90;;;;;;10171605;28;20115;-60
2021/07/05 14:07:09;;;;;;;0.95;0.68;;;33.40;53.40;;;;;;10173270;28;20036;-60
2021/07/05 14:12:00;;;;;;;0.75;0.70;;;33.90;51.50;;;;;;10172545;28;20385;-58
2021/07/05 14:16:53;;;;;;;13.07;10.23;;;33.70;50.80;;;;;;10176646;28;20035;-59
2021/07/05 14:21:45;;;;;;;2.80;1.52;;;34.30;49.60;;;;;;10143077;28;20651;-58
2021/07/05 14:26:35;;;;;;;1.15;0.82;;;33.70;49.60;;;;;;10141972;28;20112;-58
2021/07/05 14:31:26;;;;;;;0.83;0.83;;;33.90;48.70;;;;;;10129876;28;20123;-59
2021/07/05 14:36:17;;;;;;;1.10;0.90;;;34.30;47.90;;;;;;10180349;28;20115;-58
2021/07/05 14:41:07;;;;;;;0.67;0.67;;;34.00;47.40;;;;;;10180866;28;20032;-59
2021/07/05 14:45:58;;;;;;;0.60;0.50;;;31.80;50.00;;;;;;10180567;28;20363;-59
2021/07/05 14:50:49;;;;;;;1.60;0.82;;;29.50;53.00;;;;;;10180726;28;20028;-57
2021/07/05 14:55:40;;;;;;;1.70;0.70;;;27.90;55.00;;;;;;10179725;28;20251;-58
2021/07/05 15:00:34;;;;;;;0.73;0.60;;;27.10;55.40;;;;;;10189866;28;20474;-57
2021/07/05 15:05:25;;;;;;;;;;;27.00;55.10;;;;;;10195048;28;20024;-57
2021/07/05 15:10:18;;;;;;;1.33;0.70;;;27.10;54.60;;;;;;10197500;28;19916;-59
2021/07/05 15:15:09;;;;;;;1.25;0.75;;;27.00;54.90;;;;;;10199182;28;20039;-58
2021/07/05 15:20:00;;;;;;;1.08;0.88;;;26.90;55.00;;;;;;10195149;28;20217;-59
2021/07/05 15:24:51;;;;;;;2.10;1.35;;;27.60;53.40;;;;;;10197950;28;20047;-58
2021/07/05 15:29:41;;;;;;;1.05;0.80;;;27.80;53.10;;;;;;10198978;28;20486;-58
2021/07/05 15:34:33;;;;;;;2.40;1.10;;;28.80;52.40;;;;;;10196922;28;20084;-58
2021/07/05 15:39:28;;;;;;;1.35;0.80;;;29.30;51.60;;;;;;10198894;28;20027;-58
2021/07/05 15:44:18;;;;;;;1.67;1.15;;;31.60;48.70;;;;;;10200389;28;20094;-60
2021/07/05 15:49:09;;;;;;;0.88;0.88;;;32.50;47.30;;;;;;10196927;28;20073;-60
2021/07/05 15:54:00;;;;;;;1.60;1.00;;;33.30;46.40;;;;;;10197605;28;20035;-59
2021/07/05 15:58:50;;;;;;;1.88;0.90;;;32.70;47.00;;;;;;10197764;28;20051;-58
2021/07/05 16:03:41;;;;;;;1.77;1.02;;;31.30;48.10;;;;;;10196636;28;20039;-59
2021/07/05 16:08:32;;;;;;;2.40;1.13;;;29.60;50.00;;;;;;10182573;28;20529;-60
2021/07/05 16:13:23;;;;;;;1.02;0.93;;;28.60;50.60;;;;;;10205587;28;20254;-57
2021/07/05 16:18:18;;;;;;;1.30;0.82;;;28.10;50.90;;;;;;10177017;28;20028;-58
2021/07/05 16:23:09;;;;;;;1.80;0.90;;;28.20;50.50;;;;;;10158886;28;20036;-59
2021/07/05 16:28:04;;;;;;;2.00;1.10;;;28.70;49.60;;;;;;10169926;28;20028;-60
2021/07/05 16:32:54;;;;;;;1.80;1.00;;;28.40;49.50;;;;;;10117817;28;20077;-56
2021/07/05 16:37:45;;;;;;;2.72;1.02;;;28.00;50.30;;;;;;10150606;28;20173;-58
2021/07/05 16:42:36;;;;;;;1.55;0.80;;;30.10;48.60;;;;;;10185758;28;20344;-60
2021/07/05 16:47:26;;;;;;;2.50;1.35;;;32.50;45.50;;;;;;10184654;28;20028;-60
2021/07/05 16:52:29;;;;;;;1.33;0.90;;;33.60;43.80;;;;;;10164441;28;20071;-58
2021/07/05 16:57:19;;;;;;;1.05;0.80;;;33.90;43.20;;;;;;10156706;28;20461;-59
2021/07/05 17:02:16;;;;;;;1.83;1.23;;;33.10;43.50;;;;;;10165880;28;20070;-59
2021/07/05 17:07:07;;;;;;;2.78;1.92;;;30.80;46.10;;;;;;10159741;28;20029;-55
2021/07/05 17:11:58;;;;;;;1.70;1.00;;;30.10;46.80;;;;;;10174791;28;20573;-60
2021/07/05 17:16:49;;;;;;;2.72;1.10;;;30.00;47.00;;;;;;10178333;28;20059;-59
2021/07/05 17:21:40;;;;;;;1.58;0.80;;;30.00;46.50;;;;;;10175950;28;20048;-60
2021/07/05 17:26:30;;;;;;;1.33;0.93;;;30.60;45.90;;;;;;10174237;28;20051;-61
2021/07/05 17:31:21;;;;;;;3.50;2.03;;;30.80;45.50;;;;;;10173959;28;20062;-56
2021/07/05 17:36:12;;;;;;;1.38;1.17;;;29.20;47.80;;;;;;10173251;28;20032;-58
2021/07/05 17:41:03;;;;;;;4.20;1.42;;;28.40;49.10;;;;;;10173051;28;20031;-51
2021/07/05 17:45:53;;;;;;;3.15;1.05;;;27.90;49.90;;;;;;10173490;28;20089;-55
2021/07/05 17:50:44;;;;;;;1.73;1.15;;;27.60;50.40;;;;;;10131345;28;20055;-56
2021/07/05 17:55:35;;;;;;;1.90;1.02;;;27.60;50.30;;;;;;10134811;28;20044;-56
2021/07/05 18:00:27;;;;;;;2.55;0.90;;;29.20;48.70;;;;;;10132654;28;20049;-59
2021/07/05 18:05:19;;;;;;;1.55;1.08;;;29.50;48.30;;;;;;10115645;28;20593;-58
2021/07/05 18:10:12;;;;;;;3.00;1.27;;;28.40;49.80;;;;;;10143703;28;20076;-58
2021/07/05 18:15:05;;;;;;;1.25;1.00;;;27.80;50.80;;;;;;10170520;28;20028;-56
2021/07/05 18:19:56;;;;;;;2.45;1.20;;;27.20;51.90;;;;;;10172078;28;20521;-58
2021/07/05 18:24:47;;;;;;;1.35;1.02;;;26.80;52.60;;;;;;10172941;28;20032;-58
2021/07/05 18:29:38;;;;;;;1.98;1.45;;;26.50;52.90;;;;;;10172694;28;20165;-56
2021/07/05 18:34:29;;;;;;;1.73;1.20;;;26.30;53.50;;;;;;10171822;28;20031;-55
2021/07/05 18:39:20;;;;;;;3.40;1.17;;;26.00;54.00;;;;;;10171811;28;20077;-58
2021/07/05 18:44:11;;;;;;;1.67;1.23;;;25.70;54.60;;;;;;10172070;28;20105;-62
2021/07/05 18:49:02;;;;;;;3.25;1.10;;;25.60;54.80;;;;;;10172866;28;20231;-63
2021/07/05 18:53:53;;;;;;;1.98;1.00;;;25.40;54.90;;;;;;10172384;28;20028;-66
2021/07/05 18:58:48;;;;;;;1.75;1.00;;;25.40;55.40;;;;;;10173621;28;20035;-62
2021/07/05 19:03:39;;;;;;;1.90;1.10;;;25.30;55.70;;;;;;10191903;28;20457;-65
2021/07/05 19:08:29;;;;;;;1.65;1.17;;;25.20;55.90;;;;;;10179541;28;20036;-65
2021/07/05 19:13:20;;;;;;;3.22;1.30;;;25.10;56.20;;;;;;10186338;28;20047;-67
2021/07/05 19:18:11;;;;;;;4.40;1.50;;;25.00;56.50;;;;;;10160949;28;20047;-64
2021/07/05 19:23:02;;;;;;;4.18;1.77;;;24.80;56.90;;;;;;10178187;28;20537;-63
2021/07/05 19:27:52;;;;;;;5.65;2.20;;;24.70;57.10;;;;;;10179005;28;20759;-60
2021/07/05 19:32:43;;;;;;;2.47;1.52;;;24.60;57.50;;;;;;10180643;28;20036;-65
2021/07/05 19:37:34;;;;;;;3.72;1.58;;;24.60;57.70;;;;;;10178616;28;20375;-61
2021/07/05 19:42:25;;;;;;;5.95;3.10;;;24.50;57.80;;;;;;10177114;28;20684;-63
2021/07/05 19:47:16;;;;;;;3.63;1.88;;;24.50;58.30;;;;;;10176380;28;20028;-62
2021/07/05 19:52:07;;;;;;;1.80;1.40;;;24.40;58.50;;;;;;10177494;28;20047;-64
2021/07/05 19:56:57;;;;;;;4.82;1.30;;;24.40;58.60;;;;;;10177844;28;20059;-61
2021/07/05 20:01:48;;;;;;;6.00;3.58;;;24.20;59.20;;;;;;10177103;28;20084;-62
2021/07/05 20:06:39;;;;;;;3.65;1.65;;;24.10;59.60;;;;;;10177011;28;20039;-62
2021/07/05 20:11:30;;;;;;;4.93;1.42;;;24.00;60.00;;;;;;10158423;28;20107;-61
2021/07/05 20:16:21;;;;;;;2.55;1.38;;;24.00;60.40;;;;;;10176682;28;20059;-61
2021/07/05 20:21:12;;;;;;;3.17;1.75;;;23.80;60.70;;;;;;10176168;28;20042;-63
2021/07/05 20:26:02;;;;;;;2.90;1.77;;;23.80;61.10;;;;;;10159667;28;20230;-61
2021/07/05 20:30:53;;;;;;;4.18;2.80;;;23.80;61.00;;;;;;10175243;28;20100;-62
2021/07/05 20:35:44;;;;;;;2.97;1.73;;;23.80;61.30;;;;;;10157921;28;20100;-60
2021/07/05 20:40:37;;;;;;;20.80;13.18;;;23.80;61.50;;;;;;10170834;28;20518;-64
2021/07/05 20:45:30;;;;;;;3.92;2.10;;;23.80;61.70;;;;;;10168962;28;20363;-63
2021/07/05 20:50:21;;;;;;;6.22;3.53;;;23.80;61.60;;;;;;10173754;28;20036;-64
2021/07/05 20:55:13;;;;;;;5.18;3.28;;;23.70;62.20;;;;;;10175997;28;20517;-64
2021/07/05 21:00:07;;;;;;;4.70;3.05;;;23.60;62.60;;;;;;10175474;28;20051;-62
2021/07/05 21:04:59;;;;;;;5.07;2.50;;;23.60;63.00;;;;;;10175077;28;20168;-63
2021/07/05 21:09:49;;;;;;;2.65;2.13;;;23.60;63.00;;;;;;10175273;28;20307;-63
2021/07/05 21:14:40;;;;;;;3.58;1.75;;;23.60;63.20;;;;;;10175313;28;20083;-63
2021/07/05 21:19:31;;;;;;;4.75;1.70;;;23.50;63.40;;;;;;10174908;28;20612;-63
2021/07/05 21:24:21;;;;;;;3.03;1.75;;;23.50;63.60;;;;;;10174212;28;20040;-62
2021/07/05 21:29:12;;;;;;;3.97;1.85;;;23.60;63.60;;;;;;10173521;28;20051;-63
2021/07/05 21:34:03;;;;;;;2.53;1.50;;;23.60;63.80;;;;;;10162433;28;20036;-64
2021/07/05 21:38:54;;;;;;;4.43;2.58;;;23.50;63.90;;;;;;10174155;28;20093;-62
2021/07/05 21:43:45;;;;;;;2.25;1.42;;;23.50;64.10;;;;;;10174217;28;20044;-63
2021/07/05 21:48:36;;;;;;;3.40;1.90;;;23.40;64.30;;;;;;10173867;28;20497;-62
2021/07/05 21:53:26;;;;;;;5.43;2.13;;;23.20;64.60;;;;;;10174113;28;20094;-66
2021/07/05 21:58:17;;;;;;;4.07;1.95;;;23.10;65.00;;;;;;10155347;28;20036;-63
2021/07/05 22:03:08;;;;;;;3.83;1.95;;;23.10;65.00;;;;;;10173265;28;20044;-66
2021/07/05 22:07:59;;;;;;;3.70;2.17;;;23.10;65.10;;;;;;10173766;28;20036;-62
2021/07/05 22:12:51;;;;;;;6.85;1.77;;;23.00;65.20;;;;;;10173229;28;20145;-64
2021/07/05 22:17:42;;;;;;;5.28;2.28;;;22.90;65.60;;;;;;10173148;28;20115;-64
2021/07/05 22:22:34;;;;;;;2.95;1.90;;;22.80;65.70;;;;;;10173188;28;20451;-63
2021/07/05 22:27:24;;;;;;;6.88;2.40;;;22.70;65.70;;;;;;10173898;28;20135;-63
2021/07/05 22:32:15;;;;;;;6.03;3.00;;;22.60;66.30;;;;;;10172752;28;20158;-62
2021/07/05 22:37:06;;;;;;;4.47;1.85;;;22.60;66.40;;;;;;10176134;28;20024;-63
2021/07/05 22:41:56;;;;;;;7.43;2.03;;;22.60;66.50;;;;;;10162496;28;20059;-62
2021/07/05 22:46:47;;;;;;;3.55;2.05;;;22.60;66.70;;;;;;10181064;28;20708;-62
2021/07/05 22:51:38;;;;;;;4.20;1.80;;;22.50;66.90;;;;;;10180583;28;20036;-63
2021/07/05 22:56:29;;;;;;;2.88;1.60;;;22.40;67.30;;;;;;10180739;28;20058;-63
2021/07/05 23:01:20;;;;;;;2.53;1.40;;;22.20;67.70;;;;;;10179745;28;20181;-64
2021/07/05 23:06:11;;;;;;;3.30;1.50;;;22.10;68.00;;;;;;10180147;28;20116;-62
2021/07/05 23:11:02;;;;;;;3.20;1.70;;;22.10;68.10;;;;;;10180468;28;20044;-63
2021/07/05 23:15:53;;;;;;;2.65;1.45;;;22.00;68.30;;;;;;10179911;28;20032;-62
2021/07/05 23:20:44;;;;;;;4.25;1.95;;;22.00;68.50;;;;;;10179692;28;20035;-65
2021/07/05 23:25:36;;;;;;;2.00;1.80;;;21.90;68.80;;;;;;10179328;28;20425;-62
2021/07/05 23:30:27;;;;;;;3.55;1.60;;;21.90;68.90;;;;;;10179480;28;20025;-62
2021/07/05 23:35:18;;;;;;;2.33;1.50;;;21.90;68.90;;;;;;10178973;28;20070;-61
2021/07/05 23:40:15;;;;;;;2.25;1.30;;;21.90;69.20;;;;;;10178538;28;20063;-66
2021/07/05 23:45:06;;;;;;;2.17;1.30;;;21.80;69.30;;;;;;10178836;28;20151;-63
2021/07/05 23:49:57;;;;;;;2.63;1.60;;;21.80;69.30;;;;;;10177314;28;20160;-62
2021/07/05 23:54:47;;;;;;;1.70;1.15;;;21.70;69.50;;;;;;10178304;28;20294;-60
2021/07/05 23:59:38;;;;;;;3.15;1.27;;;21.80;69.70;;;;;;10177874;28;20036;-61
